sensor_id;sensor_type;location;lat;lon;timestamp;pressure;altitude;pressure_sealevel;temperature;humidity
76868;BME280;66168;45.478;11.060;2023-03-03T00:01:18;100860.91;;;8.26;63.89
76868;BME280;66168;45.478;11.060;2023-03-03T00:03:45;100857.31;;;8.21;64.08
76868;BME280;66168;45.478;11.060;2023-03-03T00:06:13;100856.28;;;8.18;63.99
76868;BME280;66168;45.478;11.060;2023-03-03T00:08:40;100857.02;;;8.14;64.15
76868;BME280;66168;45.478;11.060;2023-03-03T00:11:07;100860.34;;;8.13;63.77
76868;BME280;66168;45.478;11.060;2023-03-03T00:13:54;100859.77;;;8.10;63.95
76868;BME280;66168;45.478;11.060;2023-03-03T00:16:34;100859.63;;;8.08;63.96
76868;BME280;66168;45.478;11.060;2023-03-03T00:19:03;100859.30;;;8.04;64.20
76868;BME280;66168;45.478;11.060;2023-03-03T00:21:44;100857.19;;;8.00;64.16
76868;BME280;66168;45.478;11.060;2023-03-03T00:24:21;100848.33;;;7.97;64.03
76868;BME280;66168;45.478;11.060;2023-03-03T00:26:56;100847.98;;;7.95;64.06
76868;BME280;66168;45.478;11.060;2023-03-03T00:29:35;100850.50;;;7.95;64.06
76868;BME280;66168;45.478;11.060;2023-03-03T00:32:55;100850.10;;;7.95;64.10
76868;BME280;66168;45.478;11.060;2023-03-03T00:35:28;100848.45;;;7.96;64.34
76868;BME280;66168;45.478;11.060;2023-03-03T00:37:58;100846.17;;;7.98;63.98
76868;BME280;66168;45.478;11.060;2023-03-03T00:43:01;100847.04;;;7.98;63.95
76868;BME280;66168;45.478;11.060;2023-03-03T00:50:42;100837.45;;;7.95;63.93
76868;BME280;66168;45.478;11.060;2023-03-03T00:53:20;100836.41;;;7.93;63.43
76868;BME280;66168;45.478;11.060;2023-03-03T00:55:48;100835.02;;;7.92;63.01
76868;BME280;66168;45.478;11.060;2023-03-03T00:58:16;100835.50;;;7.95;62.83
76868;BME280;66168;45.478;11.060;2023-03-03T01:00:44;100835.86;;;8.00;62.77
76868;BME280;66168;45.478;11.060;2023-03-03T01:03:16;100835.33;;;8.04;62.72
76868;BME280;66168;45.478;11.060;2023-03-03T01:05:43;100832.47;;;8.06;62.45
76868;BME280;66168;45.478;11.060;2023-03-03T01:08:10;100830.36;;;8.06;62.35
76868;BME280;66168;45.478;11.060;2023-03-03T01:10:58;100828.54;;;8.08;62.47
76868;BME280;66168;45.478;11.060;2023-03-03T01:13:30;100830.66;;;8.09;62.54
76868;BME280;66168;45.478;11.060;2023-03-03T01:15:58;100827.37;;;8.11;62.49
76868;BME280;66168;45.478;11.060;2023-03-03T01:18:25;100826.16;;;8.10;62.58
76868;BME280;66168;45.478;11.060;2023-03-03T01:20:52;100826.00;;;8.10;62.49
76868;BME280;66168;45.478;11.060;2023-03-03T01:23:20;100824.89;;;8.11;62.40
76868;BME280;66168;45.478;11.060;2023-03-03T01:25:47;100823.63;;;8.11;62.28
76868;BME280;66168;45.478;11.060;2023-03-03T01:28:15;100825.34;;;8.10;62.25
76868;BME280;66168;45.478;11.060;2023-03-03T01:30:42;100820.08;;;8.08;62.34
76868;BME280;66168;45.478;11.060;2023-03-03T01:33:08;100814.16;;;8.05;62.34
76868;BME280;66168;45.478;11.060;2023-03-03T01:35:35;100810.03;;;8.06;62.29
76868;BME280;66168;45.478;11.060;2023-03-03T01:38:02;100808.53;;;8.06;62.01
76868;BME280;66168;45.478;11.060;2023-03-03T01:40:30;100809.19;;;8.09;61.93
76868;BME280;66168;45.478;11.060;2023-03-03T01:43:00;100806.48;;;8.11;61.62
76868;BME280;66168;45.478;11.060;2023-03-03T01:48:13;100799.21;;;8.11;61.40
76868;BME280;66168;45.478;11.060;2023-03-03T01:50:56;100797.98;;;8.11;61.17
76868;BME280;66168;45.478;11.060;2023-03-03T01:53:45;100793.05;;;8.13;61.07
76868;BME280;66168;45.478;11.060;2023-03-03T01:56:14;100787.88;;;8.15;61.14
76868;BME280;66168;45.478;11.060;2023-03-03T01:58:44;100786.33;;;8.16;61.26
76868;BME280;66168;45.478;11.060;2023-03-03T02:01:19;100787.23;;;8.16;61.21
76868;BME280;66168;45.478;11.060;2023-03-03T02:03:47;100780.33;;;8.16;61.33
76868;BME280;66168;45.478;11.060;2023-03-03T02:06:15;100779.27;;;8.18;61.24
76868;BME280;66168;45.478;11.060;2023-03-03T02:08:51;100775.56;;;8.16;61.31
76868;BME280;66168;45.478;11.060;2023-03-03T02:11:21;100770.40;;;8.13;61.26
76868;BME280;66168;45.478;11.060;2023-03-03T02:13:48;100767.78;;;8.13;61.42
76868;BME280;66168;45.478;11.060;2023-03-03T02:16:15;100767.23;;;8.12;61.36
76868;BME280;66168;45.478;11.060;2023-03-03T02:18:42;100762.92;;;8.09;61.35
76868;BME280;66168;45.478;11.060;2023-03-03T02:21:14;100762.55;;;8.06;61.30
76868;BME280;66168;45.478;11.060;2023-03-03T02:26:17;100756.48;;;8.03;61.36
76868;BME280;66168;45.478;11.060;2023-03-03T02:28:50;100751.25;;;8.02;61.14
76868;BME280;66168;45.478;11.060;2023-03-03T02:31:23;100748.70;;;8.03;60.97
76868;BME280;66168;45.478;11.060;2023-03-03T02:33:53;100750.83;;;8.05;60.96
76868;BME280;66168;45.478;11.060;2023-03-03T02:36:27;100750.82;;;8.04;61.11
76868;BME280;66168;45.478;11.060;2023-03-03T02:39:17;100746.17;;;8.02;61.10
76868;BME280;66168;45.478;11.060;2023-03-03T02:44:22;100744.50;;;7.99;61.04
76868;BME280;66168;45.478;11.060;2023-03-03T02:46:50;100744.50;;;7.99;60.97
76868;BME280;66168;45.478;11.060;2023-03-03T02:49:21;100741.45;;;7.98;61.13
76868;BME280;66168;45.478;11.060;2023-03-03T02:51:49;100741.66;;;7.95;61.09
76868;BME280;66168;45.478;11.060;2023-03-03T02:54:18;100736.92;;;7.93;61.08
76868;BME280;66168;45.478;11.060;2023-03-03T02:56:45;100737.31;;;7.93;60.96
76868;BME280;66168;45.478;11.060;2023-03-03T02:59:13;100736.44;;;7.90;61.11
76868;BME280;66168;45.478;11.060;2023-03-03T03:01:43;100732.52;;;7.85;61.35
76868;BME280;66168;45.478;11.060;2023-03-03T03:04:14;100730.34;;;7.79;61.55
76868;BME280;66168;45.478;11.060;2023-03-03T03:06:44;100727.31;;;7.72;61.80
76868;BME280;66168;45.478;11.060;2023-03-03T03:09:12;100727.61;;;7.66;61.94
76868;BME280;66168;45.478;11.060;2023-03-03T03:11:39;100726.81;;;7.62;61.90
76868;BME280;66168;45.478;11.060;2023-03-03T03:14:09;100727.71;;;7.58;61.69
76868;BME280;66168;45.478;11.060;2023-03-03T03:16:36;100722.58;;;7.56;61.67
76868;BME280;66168;45.478;11.060;2023-03-03T03:19:04;100718.93;;;7.56;61.55
76868;BME280;66168;45.478;11.060;2023-03-03T03:21:32;100715.97;;;7.59;61.50
76868;BME280;66168;45.478;11.060;2023-03-03T03:23:59;100718.14;;;7.60;61.80
76868;BME280;66168;45.478;11.060;2023-03-03T03:26:26;100713.83;;;7.63;61.59
76868;BME280;66168;45.478;11.060;2023-03-03T03:28:54;100714.14;;;7.65;61.66
76868;BME280;66168;45.478;11.060;2023-03-03T03:31:21;100711.17;;;7.66;61.65
76868;BME280;66168;45.478;11.060;2023-03-03T03:33:48;100710.60;;;7.67;61.59
76868;BME280;66168;45.478;11.060;2023-03-03T03:36:15;100710.89;;;7.67;61.37
76868;BME280;66168;45.478;11.060;2023-03-03T03:38:42;100712.70;;;7.68;61.19
76868;BME280;66168;45.478;11.060;2023-03-03T03:41:11;100709.93;;;7.69;61.39
76868;BME280;66168;45.478;11.060;2023-03-03T03:43:38;100711.19;;;7.71;61.31
76868;BME280;66168;45.478;11.060;2023-03-03T03:46:06;100706.65;;;7.72;61.25
76868;BME280;66168;45.478;11.060;2023-03-03T03:48:33;100705.55;;;7.73;61.18
76868;BME280;66168;45.478;11.060;2023-03-03T03:51:01;100703.67;;;7.74;60.85
76868;BME280;66168;45.478;11.060;2023-03-03T03:53:28;100702.05;;;7.74;60.93
76868;BME280;66168;45.478;11.060;2023-03-03T03:55:56;100704.73;;;7.74;60.88
76868;BME280;66168;45.478;11.060;2023-03-03T03:58:22;100701.64;;;7.73;60.94
76868;BME280;66168;45.478;11.060;2023-03-03T04:00:54;100699.70;;;7.73;61.04
76868;BME280;66168;45.478;11.060;2023-03-03T04:03:21;100697.42;;;7.73;60.89
76868;BME280;66168;45.478;11.060;2023-03-03T04:05:51;100704.30;;;7.75;61.10
76868;BME280;66168;45.478;11.060;2023-03-03T04:08:18;100704.38;;;7.76;61.11
76868;BME280;66168;45.478;11.060;2023-03-03T04:10:45;100705.79;;;7.72;61.18
76868;BME280;66168;45.478;11.060;2023-03-03T04:13:12;100708.95;;;7.69;61.42
76868;BME280;66168;45.478;11.060;2023-03-03T04:15:38;100707.67;;;7.64;61.60
76868;BME280;66168;45.478;11.060;2023-03-03T04:18:05;100704.87;;;7.59;61.58
76868;BME280;66168;45.478;11.060;2023-03-03T04:20:32;100704.01;;;7.55;61.84
76868;BME280;66168;45.478;11.060;2023-03-03T04:23:00;100703.58;;;7.51;61.72
76868;BME280;66168;45.478;11.060;2023-03-03T04:25:28;100698.19;;;7.47;61.86
76868;BME280;66168;45.478;11.060;2023-03-03T04:27:54;100696.86;;;7.42;62.05
76868;BME280;66168;45.478;11.060;2023-03-03T04:30:21;100696.23;;;7.38;62.00
76868;BME280;66168;45.478;11.060;2023-03-03T04:32:50;100693.08;;;7.34;62.25
76868;BME280;66168;45.478;11.060;2023-03-03T04:35:20;100694.90;;;7.30;62.42
76868;BME280;66168;45.478;11.060;2023-03-03T04:37:47;100696.09;;;7.27;62.22
76868;BME280;66168;45.478;11.060;2023-03-03T04:40:14;100696.15;;;7.30;62.45
76868;BME280;66168;45.478;11.060;2023-03-03T04:42:41;100695.44;;;7.32;62.38
76868;BME280;66168;45.478;11.060;2023-03-03T04:45:08;100695.61;;;7.33;62.42
76868;BME280;66168;45.478;11.060;2023-03-03T04:47:36;100696.74;;;7.34;62.17
76868;BME280;66168;45.478;11.060;2023-03-03T04:50:03;100698.27;;;7.35;62.24
76868;BME280;66168;45.478;11.060;2023-03-03T04:52:31;100698.63;;;7.35;62.22
76868;BME280;66168;45.478;11.060;2023-03-03T04:54:57;100695.23;;;7.34;62.11
76868;BME280;66168;45.478;11.060;2023-03-03T04:57:24;100695.98;;;7.33;62.07
76868;BME280;66168;45.478;11.060;2023-03-03T04:59:51;100692.72;;;7.31;62.16
76868;BME280;66168;45.478;11.060;2023-03-03T05:02:18;100690.42;;;7.29;62.19
76868;BME280;66168;45.478;11.060;2023-03-03T05:04:45;100694.98;;;7.28;62.24
76868;BME280;66168;45.478;11.060;2023-03-03T05:07:12;100695.80;;;7.27;62.34
76868;BME280;66168;45.478;11.060;2023-03-03T05:09:39;100693.90;;;7.26;62.40
76868;BME280;66168;45.478;11.060;2023-03-03T05:12:06;100690.80;;;7.24;62.18
76868;BME280;66168;45.478;11.060;2023-03-03T05:14:32;100686.39;;;7.20;62.43
76868;BME280;66168;45.478;11.060;2023-03-03T05:16:59;100689.88;;;7.19;62.51
76868;BME280;66168;45.478;11.060;2023-03-03T05:19:26;100693.04;;;7.17;62.71
76868;BME280;66168;45.478;11.060;2023-03-03T05:21:53;100690.57;;;7.16;62.42
76868;BME280;66168;45.478;11.060;2023-03-03T05:24:20;100689.08;;;7.14;62.56
76868;BME280;66168;45.478;11.060;2023-03-03T05:26:46;100690.70;;;7.14;62.68
76868;BME280;66168;45.478;11.060;2023-03-03T05:29:13;100687.42;;;7.14;62.59
76868;BME280;66168;45.478;11.060;2023-03-03T05:31:40;100692.36;;;7.13;62.68
76868;BME280;66168;45.478;11.060;2023-03-03T05:34:10;100694.23;;;7.12;62.71
76868;BME280;66168;45.478;11.060;2023-03-03T05:36:37;100690.71;;;7.12;62.45
76868;BME280;66168;45.478;11.060;2023-03-03T05:39:03;100692.64;;;7.14;62.46
76868;BME280;66168;45.478;11.060;2023-03-03T05:41:30;100695.90;;;7.15;62.65
76868;BME280;66168;45.478;11.060;2023-03-03T05:43:57;100697.59;;;7.16;62.71
76868;BME280;66168;45.478;11.060;2023-03-03T05:46:23;100702.23;;;7.17;62.63
76868;BME280;66168;45.478;11.060;2023-03-03T05:48:50;100696.62;;;7.18;62.45
76868;BME280;66168;45.478;11.060;2023-03-03T05:51:17;100698.84;;;7.23;62.55
76868;BME280;66168;45.478;11.060;2023-03-03T05:53:43;100698.81;;;7.28;62.60
76868;BME280;66168;45.478;11.060;2023-03-03T05:56:10;100701.14;;;7.33;62.61
76868;BME280;66168;45.478;11.060;2023-03-03T05:58:37;100706.02;;;7.37;62.52
76868;BME280;66168;45.478;11.060;2023-03-03T06:01:04;100706.03;;;7.38;62.34
76868;BME280;66168;45.478;11.060;2023-03-03T06:03:30;100707.83;;;7.40;62.49
76868;BME280;66168;45.478;11.060;2023-03-03T06:05:57;100709.00;;;7.41;62.37
76868;BME280;66168;45.478;11.060;2023-03-03T06:08:24;100715.19;;;7.42;62.29
76868;BME280;66168;45.478;11.060;2023-03-03T06:10:51;100716.57;;;7.37;62.42
76868;BME280;66168;45.478;11.060;2023-03-03T06:13:19;100720.27;;;7.16;63.27
76868;BME280;66168;45.478;11.060;2023-03-03T06:15:45;100724.19;;;7.05;63.19
76868;BME280;66168;45.478;11.060;2023-03-03T06:18:12;100728.21;;;7.01;63.40
76868;BME280;66168;45.478;11.060;2023-03-03T06:20:39;100731.35;;;6.74;64.74
76868;BME280;66168;45.478;11.060;2023-03-03T06:23:05;100728.88;;;6.45;65.42
76868;BME280;66168;45.478;11.060;2023-03-03T06:25:32;100732.83;;;6.26;65.93
76868;BME280;66168;45.478;11.060;2023-03-03T06:28:01;100733.95;;;6.29;65.60
76868;BME280;66168;45.478;11.060;2023-03-03T06:30:28;100738.12;;;6.35;66.03
76868;BME280;66168;45.478;11.060;2023-03-03T06:32:56;100743.42;;;6.31;66.60
76868;BME280;66168;45.478;11.060;2023-03-03T06:35:23;100743.05;;;6.26;66.94
76868;BME280;66168;45.478;11.060;2023-03-03T06:37:50;100743.23;;;6.30;66.57
76868;BME280;66168;45.478;11.060;2023-03-03T06:40:17;100740.58;;;6.46;66.65
76868;BME280;66168;45.478;11.060;2023-03-03T06:42:44;100743.42;;;6.67;66.28
76868;BME280;66168;45.478;11.060;2023-03-03T06:45:11;100744.27;;;6.86;65.19
76868;BME280;66168;45.478;11.060;2023-03-03T06:47:38;100743.34;;;7.03;65.27
76868;BME280;66168;45.478;11.060;2023-03-03T06:50:05;100747.19;;;7.15;64.32
76868;BME280;66168;45.478;11.060;2023-03-03T06:52:32;100751.21;;;7.24;65.33
76868;BME280;66168;45.478;11.060;2023-03-03T06:55:10;100751.52;;;7.37;64.76
76868;BME280;66168;45.478;11.060;2023-03-03T06:57:37;100751.27;;;7.50;64.96
76868;BME280;66168;45.478;11.060;2023-03-03T07:02:41;100749.01;;;7.84;64.43
76868;BME280;66168;45.478;11.060;2023-03-03T07:05:16;100744.61;;;8.03;64.22
76868;BME280;66168;45.478;11.060;2023-03-03T07:07:43;100745.73;;;8.23;63.91
76868;BME280;66168;45.478;11.060;2023-03-03T07:12:47;100749.50;;;8.63;63.40
76868;BME280;66168;45.478;11.060;2023-03-03T07:15:16;100753.25;;;8.83;63.11
76868;BME280;66168;45.478;11.060;2023-03-03T07:17:48;100755.41;;;9.02;62.80
76868;BME280;66168;45.478;11.060;2023-03-03T07:20:31;100753.35;;;9.23;62.67
76868;BME280;66168;45.478;11.060;2023-03-03T07:22:59;100752.47;;;9.47;62.06
76868;BME280;66168;45.478;11.060;2023-03-03T07:25:31;100753.14;;;9.67;61.70
76868;BME280;66168;45.478;11.060;2023-03-03T07:28:30;100756.77;;;9.85;61.29
76868;BME280;66168;45.478;11.060;2023-03-03T07:30:58;100756.66;;;10.05;60.68
76868;BME280;66168;45.478;11.060;2023-03-03T07:33:37;100759.48;;;10.22;60.75
76868;BME280;66168;45.478;11.060;2023-03-03T07:36:25;100761.02;;;10.27;60.25
76868;BME280;66168;45.478;11.060;2023-03-03T07:38:53;100761.35;;;10.18;60.78
76868;BME280;66168;45.478;11.060;2023-03-03T07:41:21;100767.25;;;10.15;60.84
76868;BME280;66168;45.478;11.060;2023-03-03T07:43:54;100763.50;;;10.09;60.77
76868;BME280;66168;45.478;11.060;2023-03-03T07:46:33;100766.90;;;9.97;60.63
76868;BME280;66168;45.478;11.060;2023-03-03T07:49:15;100767.02;;;9.93;60.34
76868;BME280;66168;45.478;11.060;2023-03-03T07:51:46;100770.70;;;9.92;60.26
76868;BME280;66168;45.478;11.060;2023-03-03T07:57:04;100768.10;;;10.14;60.19
76868;BME280;66168;45.478;11.060;2023-03-03T07:59:40;100766.46;;;10.30;59.80
76868;BME280;66168;45.478;11.060;2023-03-03T08:02:40;100769.09;;;10.41;59.89
76868;BME280;66168;45.478;11.060;2023-03-03T08:05:33;100772.05;;;10.37;60.23
76868;BME280;66168;45.478;11.060;2023-03-03T08:08:13;100773.73;;;10.36;59.99
76868;BME280;66168;45.478;11.060;2023-03-03T08:10:48;100777.67;;;10.56;60.21
76868;BME280;66168;45.478;11.060;2023-03-03T08:15:48;100781.10;;;10.92;59.00
76868;BME280;66168;45.478;11.060;2023-03-03T08:18:29;100781.20;;;10.91;59.07
76868;BME280;66168;45.478;11.060;2023-03-03T08:21:00;100783.98;;;10.88;59.52
76868;BME280;66168;45.478;11.060;2023-03-03T08:23:28;100782.91;;;10.93;59.71
76868;BME280;66168;45.478;11.060;2023-03-03T08:25:55;100786.13;;;10.99;59.81
76868;BME280;66168;45.478;11.060;2023-03-03T08:28:21;100784.09;;;10.98;59.92
76868;BME280;66168;45.478;11.060;2023-03-03T08:30:49;100787.79;;;11.01;60.82
76868;BME280;66168;45.478;11.060;2023-03-03T08:33:17;100786.76;;;11.15;60.29
76868;BME280;66168;45.478;11.060;2023-03-03T08:35:44;100783.93;;;11.28;59.51
76868;BME280;66168;45.478;11.060;2023-03-03T08:38:13;100787.30;;;11.37;59.49
76868;BME280;66168;45.478;11.060;2023-03-03T08:40:41;100784.58;;;11.46;59.56
76868;BME280;66168;45.478;11.060;2023-03-03T08:43:08;100788.63;;;11.61;59.62
76868;BME280;66168;45.478;11.060;2023-03-03T08:45:35;100790.68;;;11.61;58.95
76868;BME280;66168;45.478;11.060;2023-03-03T08:48:02;100789.36;;;11.64;58.72
76868;BME280;66168;45.478;11.060;2023-03-03T08:50:31;100791.42;;;11.69;58.84
76868;BME280;66168;45.478;11.060;2023-03-03T08:52:58;100786.08;;;11.68;59.45
76868;BME280;66168;45.478;11.060;2023-03-03T08:55:25;100787.86;;;11.66;59.27
76868;BME280;66168;45.478;11.060;2023-03-03T08:57:52;100789.52;;;11.78;58.96
76868;BME280;66168;45.478;11.060;2023-03-03T09:00:19;100789.44;;;11.90;58.19
76868;BME280;66168;45.478;11.060;2023-03-03T09:02:46;100789.45;;;12.02;57.86
76868;BME280;66168;45.478;11.060;2023-03-03T09:05:12;100787.19;;;12.15;57.59
76868;BME280;66168;45.478;11.060;2023-03-03T09:07:39;100785.86;;;12.25;57.24
76868;BME280;66168;45.478;11.060;2023-03-03T09:10:07;100788.73;;;12.17;56.98
76868;BME280;66168;45.478;11.060;2023-03-03T09:12:37;100791.44;;;12.11;57.21
76868;BME280;66168;45.478;11.060;2023-03-03T09:17:50;100788.48;;;12.34;57.63
76868;BME280;66168;45.478;11.060;2023-03-03T09:20:29;100789.80;;;12.51;57.16
76868;BME280;66168;45.478;11.060;2023-03-03T09:22:58;100794.34;;;12.72;56.79
76868;BME280;66168;45.478;11.060;2023-03-03T09:25:33;100796.89;;;12.84;56.04
76868;BME280;66168;45.478;11.060;2023-03-03T09:28:02;100795.45;;;12.89;55.20
76868;BME280;66168;45.478;11.060;2023-03-03T09:30:36;100791.13;;;13.01;55.13
76868;BME280;66168;45.478;11.060;2023-03-03T09:33:41;100789.83;;;13.10;54.82
76868;BME280;66168;45.478;11.060;2023-03-03T09:36:28;100790.80;;;13.09;54.01
76868;BME280;66168;45.478;11.060;2023-03-03T09:38:56;100793.12;;;13.14;54.33
76868;BME280;66168;45.478;11.060;2023-03-03T10:06:32;100800.27;;;13.45;54.58
76868;BME280;66168;45.478;11.060;2023-03-03T10:17:47;100800.17;;;13.61;53.89
76868;BME280;66168;45.478;11.060;2023-03-03T10:20:41;100802.30;;;13.60;54.01
76868;BME280;66168;45.478;11.060;2023-03-03T10:23:20;100798.20;;;13.63;53.94
76868;BME280;66168;45.478;11.060;2023-03-03T10:25:55;100800.88;;;13.69;54.19
76868;BME280;66168;45.478;11.060;2023-03-03T10:46:23;100803.20;;;14.14;53.93
76868;BME280;66168;45.478;11.060;2023-03-03T10:54:46;100806.48;;;14.51;52.32
76868;BME280;66168;45.478;11.060;2023-03-03T11:02:36;100807.27;;;14.24;52.03
76868;BME280;66168;45.478;11.060;2023-03-03T11:05:22;100804.15;;;14.12;51.80
76868;BME280;66168;45.478;11.060;2023-03-03T11:07:56;100807.29;;;14.07;51.88
76868;BME280;66168;45.478;11.060;2023-03-03T11:28:08;100801.05;;;13.95;53.65
76868;BME280;66168;45.478;11.060;2023-03-03T11:32:50;100799.61;;;13.91;53.52
76868;BME280;66168;45.478;11.060;2023-03-03T11:35:26;100795.16;;;13.90;53.63
76868;BME280;66168;45.478;11.060;2023-03-03T11:43:38;100792.92;;;13.73;56.08
76868;BME280;66168;45.478;11.060;2023-03-03T11:46:41;100787.56;;;13.65;55.88
76868;BME280;66168;45.478;11.060;2023-03-03T11:49:19;100785.45;;;13.51;56.21
76868;BME280;66168;45.478;11.060;2023-03-03T11:52:23;100779.98;;;13.56;56.13
76868;BME280;66168;45.478;11.060;2023-03-03T11:55:12;100781.59;;;13.56;56.80
76868;BME280;66168;45.478;11.060;2023-03-03T11:57:45;100782.04;;;13.65;56.53
76868;BME280;66168;45.478;11.060;2023-03-03T12:03:01;100778.77;;;13.72;56.17
76868;BME280;66168;45.478;11.060;2023-03-03T12:11:17;100780.55;;;13.64;55.74
76868;BME280;66168;45.478;11.060;2023-03-03T12:14:04;100779.79;;;13.80;55.36
76868;BME280;66168;45.478;11.060;2023-03-03T12:19:40;100774.02;;;14.12;53.79
76868;BME280;66168;45.478;11.060;2023-03-03T12:22:33;100771.13;;;14.15;53.99
76868;BME280;66168;45.478;11.060;2023-03-03T12:25:22;100772.81;;;14.09;54.13
76868;BME280;66168;45.478;11.060;2023-03-03T12:27:59;100770.75;;;14.28;53.94
76868;BME280;66168;45.478;11.060;2023-03-03T12:33:28;100762.55;;;14.56;53.42
76868;BME280;66168;45.478;11.060;2023-03-03T12:36:24;100763.41;;;14.65;52.91
76868;BME280;66168;45.478;11.060;2023-03-03T12:39:14;100757.55;;;14.82;53.11
76868;BME280;66168;45.478;11.060;2023-03-03T12:47:36;100752.43;;;14.36;53.04
76868;BME280;66168;45.478;11.060;2023-03-03T12:56:03;100747.73;;;14.52;52.72
76868;BME280;66168;45.478;11.060;2023-03-03T12:58:51;100751.12;;;14.61;53.08
76868;BME280;66168;45.478;11.060;2023-03-03T13:01:47;100754.59;;;14.66;52.45
76868;BME280;66168;45.478;11.060;2023-03-03T13:12:30;100743.57;;;15.19;51.45
76868;BME280;66168;45.478;11.060;2023-03-03T13:15:26;100740.95;;;15.34;50.78
76868;BME280;66168;45.478;11.060;2023-03-03T13:18:22;100741.72;;;15.29;50.53
76868;BME280;66168;45.478;11.060;2023-03-03T13:23:39;100742.52;;;15.15;50.48
76868;BME280;66168;45.478;11.060;2023-03-03T13:26:10;100737.95;;;15.16;49.77
76868;BME280;66168;45.478;11.060;2023-03-03T13:29:13;100736.23;;;15.29;50.41
76868;BME280;66168;45.478;11.060;2023-03-03T13:32:24;100735.05;;;15.27;50.45
76868;BME280;66168;45.478;11.060;2023-03-03T13:35:13;100733.11;;;15.11;49.57
76868;BME280;66168;45.478;11.060;2023-03-03T13:37:47;100735.43;;;14.95;50.28
76868;BME280;66168;45.478;11.060;2023-03-03T13:40:21;100734.81;;;14.90;50.67
76868;BME280;66168;45.478;11.060;2023-03-03T13:42:53;100729.88;;;14.73;50.64
76868;BME280;66168;45.478;11.060;2023-03-03T13:45:29;100726.59;;;14.63;49.54
76868;BME280;66168;45.478;11.060;2023-03-03T13:50:52;100725.45;;;14.61;51.01
76868;BME280;66168;45.478;11.060;2023-03-03T14:04:34;100717.00;;;14.55;51.19
76868;BME280;66168;45.478;11.060;2023-03-03T14:07:18;100713.14;;;14.58;50.95
76868;BME280;66168;45.478;11.060;2023-03-03T14:15:24;100715.27;;;14.45;50.83
76868;BME280;66168;45.478;11.060;2023-03-03T14:20:45;100709.16;;;14.24;50.90
76868;BME280;66168;45.478;11.060;2023-03-03T14:28:26;100711.86;;;14.06;51.11
76868;BME280;66168;45.478;11.060;2023-03-03T14:30:55;100709.58;;;13.95;51.85
76868;BME280;66168;45.478;11.060;2023-03-03T14:33:28;100704.23;;;13.91;52.13
76868;BME280;66168;45.478;11.060;2023-03-03T14:38:45;100701.79;;;13.93;51.16
76868;BME280;66168;45.478;11.060;2023-03-03T14:41:20;100702.98;;;13.95;50.95
76868;BME280;66168;45.478;11.060;2023-03-03T14:48:56;100712.36;;;13.76;50.17
76868;BME280;66168;45.478;11.060;2023-03-03T14:51:28;100708.65;;;13.69;50.36
76868;BME280;66168;45.478;11.060;2023-03-03T14:53:55;100706.86;;;13.68;50.66
76868;BME280;66168;45.478;11.060;2023-03-03T14:56:35;100707.35;;;13.67;50.77
76868;BME280;66168;45.478;11.060;2023-03-03T14:59:20;100705.09;;;13.67;50.30
76868;BME280;66168;45.478;11.060;2023-03-03T15:02:09;100703.70;;;13.69;50.22
76868;BME280;66168;45.478;11.060;2023-03-03T15:04:44;100708.56;;;13.69;49.82
76868;BME280;66168;45.478;11.060;2023-03-03T15:07:32;100707.03;;;13.68;48.97
76868;BME280;66168;45.478;11.060;2023-03-03T15:10:00;100708.67;;;13.69;49.76
76868;BME280;66168;45.478;11.060;2023-03-03T15:12:38;100707.38;;;13.75;50.43
76868;BME280;66168;45.478;11.060;2023-03-03T15:15:17;100705.22;;;13.78;50.65
76868;BME280;66168;45.478;11.060;2023-03-03T15:18:00;100709.61;;;13.77;51.66
76868;BME280;66168;45.478;11.060;2023-03-03T15:20:37;100705.45;;;13.78;51.87
76868;BME280;66168;45.478;11.060;2023-03-03T15:26:01;100700.04;;;13.80;50.11
76868;BME280;66168;45.478;11.060;2023-03-03T15:28:42;100706.65;;;13.78;52.15
76868;BME280;66168;45.478;11.060;2023-03-03T15:56:55;100692.80;;;13.73;54.95
76868;BME280;66168;45.478;11.060;2023-03-03T16:02:19;100689.73;;;13.68;54.75
76868;BME280;66168;45.478;11.060;2023-03-03T16:05:13;100691.03;;;13.66;55.60
76868;BME280;66168;45.478;11.060;2023-03-03T16:11:06;100694.17;;;13.62;55.85
76868;BME280;66168;45.478;11.060;2023-03-03T16:14:12;100691.60;;;13.59;55.70
76868;BME280;66168;45.478;11.060;2023-03-03T16:17:04;100690.79;;;13.56;55.80
76868;BME280;66168;45.478;11.060;2023-03-03T16:24:59;100706.70;;;13.41;56.10
76868;BME280;66168;45.478;11.060;2023-03-03T16:30:31;100711.45;;;13.26;56.45
76868;BME280;66168;45.478;11.060;2023-03-03T16:35:30;100716.39;;;13.15;56.93
76868;BME280;66168;45.478;11.060;2023-03-03T16:40:31;100721.98;;;13.06;57.29
76868;BME280;66168;45.478;11.060;2023-03-03T16:45:33;100729.40;;;12.93;57.36
76868;BME280;66168;45.478;11.060;2023-03-03T16:48:20;100732.17;;;12.88;57.69
76868;BME280;66168;45.478;11.060;2023-03-03T16:56:17;100746.99;;;12.63;57.98
76868;BME280;66168;45.478;11.060;2023-03-03T17:02:24;100748.46;;;12.47;57.87
76868;BME280;66168;45.478;11.060;2023-03-03T17:10:26;100749.48;;;12.26;57.82
76868;BME280;66168;45.478;11.060;2023-03-03T17:21:43;100767.59;;;11.92;58.94
76868;BME280;66168;45.478;11.060;2023-03-03T17:27:11;100770.89;;;11.75;59.54
76868;BME280;66168;45.478;11.060;2023-03-03T17:38:27;100785.39;;;11.39;59.71
76868;BME280;66168;45.478;11.060;2023-03-03T17:43:55;100793.02;;;11.21;59.91
76868;BME280;66168;45.478;11.060;2023-03-03T17:46:46;100791.53;;;11.12;60.01
76868;BME280;66168;45.478;11.060;2023-03-03T18:09:28;100822.44;;;10.84;59.11
76868;BME280;66168;45.478;11.060;2023-03-03T18:12:23;100823.55;;;10.80;59.09